sensor_id;sensor_type;location;lat;lon;timestamp;P1;durP1;ratioP1;P2;durP2;ratioP2
72895;SDS011;61036;53.224;6.554;2023-09-30T00:02:06;10.33;;;3.70;;
72895;SDS011;61036;53.224;6.554;2023-09-30T00:04:32;10.03;;;3.57;;
72895;SDS011;61036;53.224;6.554;2023-09-30T00:06:58;12.63;;;3.67;;
72895;SDS011;61036;53.224;6.554;2023-09-30T00:09:24;8.60;;;3.33;;
72895;SDS011;61036;53.224;6.554;2023-09-30T00:11:49;12.83;;;4.13;;
72895;SDS011;61036;53.224;6.554;2023-09-30T00:14:15;10.40;;;3.33;;
72895;SDS011;61036;53.224;6.554;2023-09-30T00:16:42;9.00;;;3.27;;
72895;SDS011;61036;53.224;6.554;2023-09-30T00:19:08;11.60;;;4.07;;
72895;SDS011;61036;53.224;6.554;2023-09-30T00:21:35;8.77;;;4.03;;
72895;SDS011;61036;53.224;6.554;2023-09-30T00:24:00;11.33;;;3.70;;
72895;SDS011;61036;53.224;6.554;2023-09-30T00:26:25;11.77;;;3.67;;
72895;SDS011;61036;53.224;6.554;2023-09-30T00:28:51;9.37;;;3.60;;
72895;SDS011;61036;53.224;6.554;2023-09-30T00:31:17;10.30;;;3.67;;
72895;SDS011;61036;53.224;6.554;2023-09-30T00:33:42;8.47;;;3.20;;
72895;SDS011;61036;53.224;6.554;2023-09-30T00:36:11;10.23;;;3.70;;
72895;SDS011;61036;53.224;6.554;2023-09-30T00:38:38;6.60;;;2.90;;
72895;SDS011;61036;53.224;6.554;2023-09-30T00:41:03;7.93;;;2.97;;
72895;SDS011;61036;53.224;6.554;2023-09-30T00:43:29;11.43;;;3.93;;
72895;SDS011;61036;53.224;6.554;2023-09-30T00:46:17;12.97;;;3.63;;
72895;SDS011;61036;53.224;6.554;2023-09-30T00:48:54;10.17;;;3.47;;
72895;SDS011;61036;53.224;6.554;2023-09-30T00:51:22;9.90;;;3.53;;
72895;SDS011;61036;53.224;6.554;2023-09-30T00:53:49;9.20;;;3.10;;
72895;SDS011;61036;53.224;6.554;2023-09-30T00:56:17;14.57;;;3.50;;
72895;SDS011;61036;53.224;6.554;2023-09-30T00:58:43;8.27;;;2.77;;
72895;SDS011;61036;53.224;6.554;2023-09-30T01:01:12;11.80;;;3.70;;
72895;SDS011;61036;53.224;6.554;2023-09-30T01:03:38;11.90;;;3.83;;
72895;SDS011;61036;53.224;6.554;2023-09-30T01:06:04;7.23;;;3.47;;
72895;SDS011;61036;53.224;6.554;2023-09-30T01:08:29;10.97;;;3.93;;
72895;SDS011;61036;53.224;6.554;2023-09-30T01:10:57;8.33;;;3.00;;
72895;SDS011;61036;53.224;6.554;2023-09-30T01:13:23;10.57;;;3.33;;
72895;SDS011;61036;53.224;6.554;2023-09-30T01:15:57;9.63;;;3.60;;
72895;SDS011;61036;53.224;6.554;2023-09-30T01:18:24;9.40;;;3.27;;
72895;SDS011;61036;53.224;6.554;2023-09-30T01:20:50;13.13;;;3.77;;
72895;SDS011;61036;53.224;6.554;2023-09-30T01:23:17;12.67;;;3.70;;
72895;SDS011;61036;53.224;6.554;2023-09-30T01:25:45;10.83;;;3.30;;
72895;SDS011;61036;53.224;6.554;2023-09-30T01:28:10;11.70;;;4.07;;
72895;SDS011;61036;53.224;6.554;2023-09-30T01:30:35;13.40;;;3.53;;
72895;SDS011;61036;53.224;6.554;2023-09-30T01:33:01;7.87;;;3.40;;
72895;SDS011;61036;53.224;6.554;2023-09-30T01:35:26;14.30;;;3.47;;
72895;SDS011;61036;53.224;6.554;2023-09-30T01:37:52;9.53;;;4.33;;
72895;SDS011;61036;53.224;6.554;2023-09-30T01:40:18;11.20;;;3.53;;
72895;SDS011;61036;53.224;6.554;2023-09-30T01:42:43;11.80;;;3.83;;
72895;SDS011;61036;53.224;6.554;2023-09-30T01:45:09;14.83;;;4.47;;
72895;SDS011;61036;53.224;6.554;2023-09-30T01:47:35;11.20;;;4.27;;
72895;SDS011;61036;53.224;6.554;2023-09-30T01:50:01;10.53;;;3.80;;
72895;SDS011;61036;53.224;6.554;2023-09-30T01:52:26;9.13;;;3.63;;
72895;SDS011;61036;53.224;6.554;2023-09-30T01:54:52;9.70;;;3.70;;
72895;SDS011;61036;53.224;6.554;2023-09-30T01:57:19;10.03;;;3.60;;
72895;SDS011;61036;53.224;6.554;2023-09-30T01:59:45;10.50;;;3.93;;
72895;SDS011;61036;53.224;6.554;2023-09-30T02:02:10;11.53;;;4.20;;
72895;SDS011;61036;53.224;6.554;2023-09-30T02:04:36;8.03;;;3.30;;
72895;SDS011;61036;53.224;6.554;2023-09-30T02:07:01;7.33;;;3.23;;
72895;SDS011;61036;53.224;6.554;2023-09-30T02:09:27;9.63;;;3.53;;
72895;SDS011;61036;53.224;6.554;2023-09-30T02:11:53;11.50;;;3.20;;
72895;SDS011;61036;53.224;6.554;2023-09-30T02:14:20;9.37;;;3.07;;
72895;SDS011;61036;53.224;6.554;2023-09-30T02:16:45;7.90;;;3.17;;
72895;SDS011;61036;53.224;6.554;2023-09-30T02:19:11;9.63;;;3.77;;
72895;SDS011;61036;53.224;6.554;2023-09-30T02:21:38;9.13;;;3.50;;
72895;SDS011;61036;53.224;6.554;2023-09-30T02:24:03;6.77;;;2.90;;
72895;SDS011;61036;53.224;6.554;2023-09-30T02:26:31;9.13;;;3.50;;
72895;SDS011;61036;53.224;6.554;2023-09-30T02:28:58;7.47;;;3.03;;
72895;SDS011;61036;53.224;6.554;2023-09-30T02:31:24;12.90;;;3.17;;
72895;SDS011;61036;53.224;6.554;2023-09-30T02:33:49;7.67;;;2.87;;
72895;SDS011;61036;53.224;6.554;2023-09-30T02:36:15;6.53;;;3.13;;
72895;SDS011;61036;53.224;6.554;2023-09-30T02:38:41;6.77;;;2.60;;
72895;SDS011;61036;53.224;6.554;2023-09-30T02:41:08;12.00;;;3.13;;
72895;SDS011;61036;53.224;6.554;2023-09-30T02:43:34;9.90;;;3.03;;
72895;SDS011;61036;53.224;6.554;2023-09-30T02:45:59;9.87;;;3.10;;
72895;SDS011;61036;53.224;6.554;2023-09-30T02:48:25;9.10;;;3.33;;
72895;SDS011;61036;53.224;6.554;2023-09-30T02:50:52;10.60;;;3.60;;
72895;SDS011;61036;53.224;6.554;2023-09-30T02:53:17;7.00;;;3.00;;
72895;SDS011;61036;53.224;6.554;2023-09-30T02:55:43;8.80;;;3.33;;
72895;SDS011;61036;53.224;6.554;2023-09-30T02:58:09;11.83;;;3.27;;
72895;SDS011;61036;53.224;6.554;2023-09-30T03:00:36;13.77;;;3.63;;
72895;SDS011;61036;53.224;6.554;2023-09-30T03:03:03;9.03;;;3.37;;
72895;SDS011;61036;53.224;6.554;2023-09-30T03:05:29;11.30;;;3.37;;
72895;SDS011;61036;53.224;6.554;2023-09-30T03:07:58;7.17;;;2.30;;
72895;SDS011;61036;53.224;6.554;2023-09-30T03:10:25;9.90;;;3.40;;
72895;SDS011;61036;53.224;6.554;2023-09-30T03:12:54;7.20;;;3.33;;
72895;SDS011;61036;53.224;6.554;2023-09-30T03:15:29;10.27;;;3.30;;
72895;SDS011;61036;53.224;6.554;2023-09-30T03:17:58;9.03;;;3.53;;
72895;SDS011;61036;53.224;6.554;2023-09-30T03:20:25;11.23;;;3.87;;
72895;SDS011;61036;53.224;6.554;2023-09-30T03:22:50;5.37;;;2.47;;
72895;SDS011;61036;53.224;6.554;2023-09-30T03:25:17;7.20;;;3.20;;
72895;SDS011;61036;53.224;6.554;2023-09-30T03:27:45;7.40;;;3.10;;
72895;SDS011;61036;53.224;6.554;2023-09-30T03:30:12;9.07;;;3.43;;
72895;SDS011;61036;53.224;6.554;2023-09-30T03:32:39;8.93;;;2.90;;
72895;SDS011;61036;53.224;6.554;2023-09-30T03:35:05;8.50;;;3.00;;
72895;SDS011;61036;53.224;6.554;2023-09-30T03:37:32;10.23;;;3.10;;
72895;SDS011;61036;53.224;6.554;2023-09-30T03:39:58;7.53;;;2.87;;
72895;SDS011;61036;53.224;6.554;2023-09-30T03:42:23;8.40;;;3.40;;
72895;SDS011;61036;53.224;6.554;2023-09-30T03:44:49;6.60;;;2.80;;
72895;SDS011;61036;53.224;6.554;2023-09-30T03:47:15;6.97;;;2.80;;
72895;SDS011;61036;53.224;6.554;2023-09-30T03:49:41;8.57;;;3.17;;
72895;SDS011;61036;53.224;6.554;2023-09-30T03:52:08;8.73;;;3.13;;
72895;SDS011;61036;53.224;6.554;2023-09-30T03:54:34;9.37;;;3.20;;
72895;SDS011;61036;53.224;6.554;2023-09-30T03:57:00;10.47;;;3.33;;
72895;SDS011;61036;53.224;6.554;2023-09-30T03:59:26;10.00;;;3.20;;
72895;SDS011;61036;53.224;6.554;2023-09-30T04:01:53;10.87;;;3.20;;
72895;SDS011;61036;53.224;6.554;2023-09-30T04:04:19;7.57;;;3.10;;
72895;SDS011;61036;53.224;6.554;2023-09-30T04:06:46;8.00;;;3.10;;
72895;SDS011;61036;53.224;6.554;2023-09-30T04:09:13;8.27;;;2.70;;
72895;SDS011;61036;53.224;6.554;2023-09-30T04:11:39;10.37;;;3.67;;
72895;SDS011;61036;53.224;6.554;2023-09-30T04:14:05;8.63;;;3.10;;
72895;SDS011;61036;53.224;6.554;2023-09-30T04:16:33;9.47;;;2.87;;
72895;SDS011;61036;53.224;6.554;2023-09-30T04:18:58;11.50;;;2.83;;
72895;SDS011;61036;53.224;6.554;2023-09-30T04:21:24;6.97;;;3.20;;
72895;SDS011;61036;53.224;6.554;2023-09-30T04:23:52;9.03;;;3.00;;
72895;SDS011;61036;53.224;6.554;2023-09-30T04:26:18;9.93;;;2.90;;
72895;SDS011;61036;53.224;6.554;2023-09-30T04:28:43;10.60;;;3.60;;
72895;SDS011;61036;53.224;6.554;2023-09-30T04:31:09;11.07;;;2.97;;
72895;SDS011;61036;53.224;6.554;2023-09-30T04:33:35;11.17;;;3.67;;
72895;SDS011;61036;53.224;6.554;2023-09-30T04:36:01;9.40;;;3.10;;
72895;SDS011;61036;53.224;6.554;2023-09-30T04:38:27;8.17;;;3.27;;
72895;SDS011;61036;53.224;6.554;2023-09-30T04:40:52;12.70;;;3.40;;
72895;SDS011;61036;53.224;6.554;2023-09-30T04:43:19;7.17;;;2.90;;
72895;SDS011;61036;53.224;6.554;2023-09-30T04:45:48;6.23;;;3.00;;
72895;SDS011;61036;53.224;6.554;2023-09-30T04:48:17;8.30;;;3.20;;
72895;SDS011;61036;53.224;6.554;2023-09-30T04:50:43;11.33;;;3.60;;
72895;SDS011;61036;53.224;6.554;2023-09-30T04:53:08;8.37;;;2.93;;
72895;SDS011;61036;53.224;6.554;2023-09-30T04:55:34;9.57;;;3.50;;
72895;SDS011;61036;53.224;6.554;2023-09-30T04:58:00;8.20;;;2.90;;
72895;SDS011;61036;53.224;6.554;2023-09-30T05:00:25;7.93;;;3.30;;
72895;SDS011;61036;53.224;6.554;2023-09-30T05:02:54;10.77;;;3.47;;
72895;SDS011;61036;53.224;6.554;2023-09-30T05:05:20;9.33;;;3.90;;
72895;SDS011;61036;53.224;6.554;2023-09-30T05:07:46;8.33;;;3.17;;
72895;SDS011;61036;53.224;6.554;2023-09-30T05:10:13;7.67;;;2.90;;
72895;SDS011;61036;53.224;6.554;2023-09-30T05:12:44;7.30;;;3.30;;
72895;SDS011;61036;53.224;6.554;2023-09-30T05:15:13;9.67;;;3.73;;
72895;SDS011;61036;53.224;6.554;2023-09-30T05:17:44;7.00;;;3.23;;
72895;SDS011;61036;53.224;6.554;2023-09-30T05:20:13;9.13;;;3.23;;
72895;SDS011;61036;53.224;6.554;2023-09-30T05:22:42;8.67;;;3.33;;
72895;SDS011;61036;53.224;6.554;2023-09-30T05:25:11;9.73;;;3.60;;
72895;SDS011;61036;53.224;6.554;2023-09-30T05:27:43;10.53;;;4.07;;
72895;SDS011;61036;53.224;6.554;2023-09-30T05:30:09;9.07;;;3.47;;
72895;SDS011;61036;53.224;6.554;2023-09-30T05:32:36;10.67;;;3.97;;
72895;SDS011;61036;53.224;6.554;2023-09-30T05:35:04;9.80;;;4.07;;
72895;SDS011;61036;53.224;6.554;2023-09-30T05:37:31;8.63;;;4.03;;
72895;SDS011;61036;53.224;6.554;2023-09-30T05:39:56;11.70;;;3.73;;
72895;SDS011;61036;53.224;6.554;2023-09-30T05:42:22;8.23;;;3.53;;
72895;SDS011;61036;53.224;6.554;2023-09-30T05:44:48;7.73;;;3.87;;
72895;SDS011;61036;53.224;6.554;2023-09-30T05:47:14;9.17;;;4.33;;
72895;SDS011;61036;53.224;6.554;2023-09-30T05:49:40;9.17;;;4.33;;
72895;SDS011;61036;53.224;6.554;2023-09-30T05:52:06;12.63;;;4.87;;
72895;SDS011;61036;53.224;6.554;2023-09-30T05:54:32;9.67;;;4.67;;
72895;SDS011;61036;53.224;6.554;2023-09-30T05:56:58;14.80;;;5.00;;
72895;SDS011;61036;53.224;6.554;2023-09-30T05:59:25;10.23;;;4.90;;
72895;SDS011;61036;53.224;6.554;2023-09-30T06:01:51;14.10;;;5.53;;
72895;SDS011;61036;53.224;6.554;2023-09-30T06:04:17;9.53;;;4.93;;
72895;SDS011;61036;53.224;6.554;2023-09-30T06:06:42;11.63;;;5.20;;
72895;SDS011;61036;53.224;6.554;2023-09-30T06:09:08;10.10;;;4.33;;
72895;SDS011;61036;53.224;6.554;2023-09-30T06:11:33;9.73;;;5.27;;
72895;SDS011;61036;53.224;6.554;2023-09-30T06:14:01;11.13;;;4.70;;
72895;SDS011;61036;53.224;6.554;2023-09-30T06:16:27;13.73;;;6.10;;
72895;SDS011;61036;53.224;6.554;2023-09-30T06:18:53;9.30;;;4.60;;
72895;SDS011;61036;53.224;6.554;2023-09-30T06:21:20;10.13;;;5.13;;
72895;SDS011;61036;53.224;6.554;2023-09-30T06:23:47;10.00;;;5.50;;
72895;SDS011;61036;53.224;6.554;2023-09-30T06:26:14;13.70;;;5.73;;
72895;SDS011;61036;53.224;6.554;2023-09-30T06:28:42;12.30;;;5.30;;
72895;SDS011;61036;53.224;6.554;2023-09-30T06:31:08;10.17;;;5.70;;
72895;SDS011;61036;53.224;6.554;2023-09-30T06:33:37;11.60;;;5.53;;
72895;SDS011;61036;53.224;6.554;2023-09-30T06:36:10;11.77;;;5.30;;
72895;SDS011;61036;53.224;6.554;2023-09-30T06:38:36;13.37;;;6.60;;
72895;SDS011;61036;53.224;6.554;2023-09-30T06:41:03;11.20;;;5.70;;
72895;SDS011;61036;53.224;6.554;2023-09-30T06:43:28;14.60;;;6.43;;
72895;SDS011;61036;53.224;6.554;2023-09-30T06:45:54;11.57;;;5.80;;
72895;SDS011;61036;53.224;6.554;2023-09-30T06:48:20;11.93;;;5.73;;
72895;SDS011;61036;53.224;6.554;2023-09-30T06:50:46;13.57;;;6.80;;
72895;SDS011;61036;53.224;6.554;2023-09-30T06:53:16;14.33;;;6.50;;
72895;SDS011;61036;53.224;6.554;2023-09-30T06:55:43;14.57;;;6.50;;
72895;SDS011;61036;53.224;6.554;2023-09-30T06:58:09;15.83;;;6.53;;
72895;SDS011;61036;53.224;6.554;2023-09-30T07:00:40;12.33;;;5.60;;
72895;SDS011;61036;53.224;6.554;2023-09-30T07:03:09;10.47;;;5.83;;
72895;SDS011;61036;53.224;6.554;2023-09-30T07:05:37;13.40;;;6.83;;
72895;SDS011;61036;53.224;6.554;2023-09-30T07:08:04;14.60;;;6.00;;
72895;SDS011;61036;53.224;6.554;2023-09-30T07:10:30;13.33;;;6.30;;
72895;SDS011;61036;53.224;6.554;2023-09-30T07:12:56;10.63;;;5.57;;
72895;SDS011;61036;53.224;6.554;2023-09-30T07:15:22;11.90;;;5.77;;
72895;SDS011;61036;53.224;6.554;2023-09-30T07:17:47;11.60;;;5.97;;
72895;SDS011;61036;53.224;6.554;2023-09-30T07:20:13;11.03;;;5.63;;
72895;SDS011;61036;53.224;6.554;2023-09-30T07:22:39;12.17;;;5.67;;
72895;SDS011;61036;53.224;6.554;2023-09-30T07:25:06;9.97;;;5.60;;
72895;SDS011;61036;53.224;6.554;2023-09-30T07:27:32;10.63;;;5.33;;
72895;SDS011;61036;53.224;6.554;2023-09-30T07:29:57;10.43;;;4.70;;
72895;SDS011;61036;53.224;6.554;2023-09-30T07:32:23;13.97;;;5.33;;
72895;SDS011;61036;53.224;6.554;2023-09-30T07:34:49;12.47;;;5.20;;
72895;SDS011;61036;53.224;6.554;2023-09-30T07:37:15;11.73;;;5.60;;
72895;SDS011;61036;53.224;6.554;2023-09-30T07:39:42;10.40;;;5.10;;
72895;SDS011;61036;53.224;6.554;2023-09-30T07:42:08;10.63;;;5.33;;
72895;SDS011;61036;53.224;6.554;2023-09-30T07:44:34;11.53;;;4.83;;
72895;SDS011;61036;53.224;6.554;2023-09-30T07:47:05;14.43;;;5.33;;
72895;SDS011;61036;53.224;6.554;2023-09-30T07:49:37;11.43;;;5.00;;
72895;SDS011;61036;53.224;6.554;2023-09-30T07:52:03;9.53;;;5.37;;
72895;SDS011;61036;53.224;6.554;2023-09-30T07:54:29;14.77;;;5.90;;
72895;SDS011;61036;53.224;6.554;2023-09-30T07:56:54;12.67;;;6.03;;
72895;SDS011;61036;53.224;6.554;2023-09-30T07:59:20;12.63;;;5.43;;
72895;SDS011;61036;53.224;6.554;2023-09-30T08:01:47;12.90;;;6.00;;
72895;SDS011;61036;53.224;6.554;2023-09-30T08:04:13;12.63;;;5.60;;
72895;SDS011;61036;53.224;6.554;2023-09-30T08:06:38;11.70;;;6.07;;
72895;SDS011;61036;53.224;6.554;2023-09-30T08:09:05;12.13;;;5.60;;
72895;SDS011;61036;53.224;6.554;2023-09-30T08:11:36;10.53;;;5.70;;
72895;SDS011;61036;53.224;6.554;2023-09-30T08:14:04;11.77;;;5.53;;
72895;SDS011;61036;53.224;6.554;2023-09-30T08:16:35;13.10;;;5.90;;
72895;SDS011;61036;53.224;6.554;2023-09-30T08:19:02;9.90;;;4.47;;
72895;SDS011;61036;53.224;6.554;2023-09-30T08:21:28;12.30;;;5.37;;
72895;SDS011;61036;53.224;6.554;2023-09-30T08:23:54;14.97;;;5.80;;
72895;SDS011;61036;53.224;6.554;2023-09-30T08:26:19;10.90;;;4.97;;
72895;SDS011;61036;53.224;6.554;2023-09-30T08:28:45;9.67;;;5.27;;
72895;SDS011;61036;53.224;6.554;2023-09-30T08:31:11;12.73;;;5.13;;
72895;SDS011;61036;53.224;6.554;2023-09-30T08:33:37;11.00;;;4.47;;
72895;SDS011;61036;53.224;6.554;2023-09-30T08:36:05;10.47;;;4.23;;
72895;SDS011;61036;53.224;6.554;2023-09-30T08:38:35;8.93;;;4.10;;
72895;SDS011;61036;53.224;6.554;2023-09-30T08:41:01;11.03;;;4.00;;
72895;SDS011;61036;53.224;6.554;2023-09-30T08:43:27;8.57;;;3.87;;
72895;SDS011;61036;53.224;6.554;2023-09-30T08:45:55;9.73;;;3.60;;
72895;SDS011;61036;53.224;6.554;2023-09-30T08:48:22;9.97;;;3.83;;
72895;SDS011;61036;53.224;6.554;2023-09-30T08:50:49;10.47;;;4.07;;
72895;SDS011;61036;53.224;6.554;2023-09-30T08:53:17;10.70;;;3.93;;
72895;SDS011;61036;53.224;6.554;2023-09-30T08:55:46;9.20;;;3.73;;
72895;SDS011;61036;53.224;6.554;2023-09-30T08:58:12;11.70;;;4.23;;
72895;SDS011;61036;53.224;6.554;2023-09-30T09:00:39;10.53;;;3.60;;
72895;SDS011;61036;53.224;6.554;2023-09-30T09:03:06;10.37;;;3.37;;
72895;SDS011;61036;53.224;6.554;2023-09-30T09:05:32;8.40;;;3.60;;
72895;SDS011;61036;53.224;6.554;2023-09-30T09:07:58;9.03;;;3.60;;
72895;SDS011;61036;53.224;6.554;2023-09-30T09:10:25;8.93;;;3.03;;
72895;SDS011;61036;53.224;6.554;2023-09-30T09:12:59;8.80;;;3.53;;
72895;SDS011;61036;53.224;6.554;2023-09-30T09:15:25;11.40;;;3.70;;
72895;SDS011;61036;53.224;6.554;2023-09-30T09:17:53;10.20;;;4.07;;
72895;SDS011;61036;53.224;6.554;2023-09-30T09:20:20;8.10;;;3.43;;
72895;SDS011;61036;53.224;6.554;2023-09-30T09:22:48;11.77;;;4.10;;
72895;SDS011;61036;53.224;6.554;2023-09-30T09:25:19;11.77;;;3.40;;
72895;SDS011;61036;53.224;6.554;2023-09-30T09:27:48;10.13;;;2.83;;
72895;SDS011;61036;53.224;6.554;2023-09-30T09:32:51;9.47;;;3.23;;
72895;SDS011;61036;53.224;6.554;2023-09-30T09:35:22;11.37;;;3.73;;
72895;SDS011;61036;53.224;6.554;2023-09-30T09:37:54;8.80;;;3.37;;
72895;SDS011;61036;53.224;6.554;2023-09-30T09:40:27;8.63;;;3.13;;
72895;SDS011;61036;53.224;6.554;2023-09-30T09:42:55;12.87;;;3.60;;
72895;SDS011;61036;53.224;6.554;2023-09-30T09:45:21;9.10;;;3.00;;
72895;SDS011;61036;53.224;6.554;2023-09-30T09:47:48;11.43;;;3.47;;
72895;SDS011;61036;53.224;6.554;2023-09-30T09:50:14;8.53;;;3.20;;
72895;SDS011;61036;53.224;6.554;2023-09-30T09:52:40;7.50;;;2.90;;
72895;SDS011;61036;53.224;6.554;2023-09-30T09:55:10;7.10;;;2.50;;
72895;SDS011;61036;53.224;6.554;2023-09-30T09:57:36;8.47;;;2.47;;
72895;SDS011;61036;53.224;6.554;2023-09-30T10:00:03;15.00;;;3.57;;
72895;SDS011;61036;53.224;6.554;2023-09-30T10:02:34;7.67;;;2.77;;
72895;SDS011;61036;53.224;6.554;2023-09-30T10:05:01;8.30;;;3.10;;
72895;SDS011;61036;53.224;6.554;2023-09-30T10:07:29;6.33;;;2.20;;
72895;SDS011;61036;53.224;6.554;2023-09-30T10:10:00;8.70;;;2.23;;
72895;SDS011;61036;53.224;6.554;2023-09-30T10:12:28;8.33;;;2.57;;
72895;SDS011;61036;53.224;6.554;2023-09-30T10:15:00;11.00;;;2.43;;
72895;SDS011;61036;53.224;6.554;2023-09-30T10:20:29;5.97;;;2.07;;
72895;SDS011;61036;53.224;6.554;2023-09-30T10:25:44;7.87;;;1.93;;
72895;SDS011;61036;53.224;6.554;2023-09-30T10:33:35;7.00;;;2.13;;
72895;SDS011;61036;53.224;6.554;2023-09-30T10:36:01;7.03;;;1.90;;
72895;SDS011;61036;53.224;6.554;2023-09-30T10:41:00;9.33;;;2.10;;
72895;SDS011;61036;53.224;6.554;2023-09-30T10:43:30;7.93;;;1.73;;
72895;SDS011;61036;53.224;6.554;2023-09-30T10:45:59;7.27;;;2.17;;
72895;SDS011;61036;53.224;6.554;2023-09-30T10:50:52;7.97;;;2.27;;
72895;SDS011;61036;53.224;6.554;2023-09-30T10:53:21;8.43;;;2.30;;
72895;SDS011;61036;53.224;6.554;2023-09-30T10:55:54;10.93;;;2.33;;
72895;SDS011;61036;53.224;6.554;2023-09-30T10:58:38;8.33;;;2.23;;
72895;SDS011;61036;53.224;6.554;2023-09-30T11:01:08;5.17;;;1.70;;
72895;SDS011;61036;53.224;6.554;2023-09-30T11:03:33;5.70;;;1.80;;
72895;SDS011;61036;53.224;6.554;2023-09-30T11:05:59;9.00;;;2.27;;
72895;SDS011;61036;53.224;6.554;2023-09-30T11:08:25;9.33;;;2.57;;
72895;SDS011;61036;53.224;6.554;2023-09-30T11:10:55;10.17;;;1.83;;
72895;SDS011;61036;53.224;6.554;2023-09-30T11:13:22;5.77;;;1.57;;
72895;SDS011;61036;53.224;6.554;2023-09-30T11:15:47;7.63;;;1.90;;
72895;SDS011;61036;53.224;6.554;2023-09-30T11:18:25;6.13;;;1.93;;
72895;SDS011;61036;53.224;6.554;2023-09-30T11:20:51;6.80;;;1.80;;
72895;SDS011;61036;53.224;6.554;2023-09-30T11:23:29;9.17;;;2.03;;
72895;SDS011;61036;53.224;6.554;2023-09-30T11:25:55;7.33;;;1.73;;
72895;SDS011;61036;53.224;6.554;2023-09-30T11:28:21;7.53;;;2.23;;
72895;SDS011;61036;53.224;6.554;2023-09-30T11:30:57;7.30;;;1.90;;
72895;SDS011;61036;53.224;6.554;2023-09-30T11:33:27;7.07;;;1.80;;
72895;SDS011;61036;53.224;6.554;2023-09-30T11:38:27;5.37;;;1.97;;
72895;SDS011;61036;53.224;6.554;2023-09-30T11:43:34;10.07;;;1.77;;
72895;SDS011;61036;53.224;6.554;2023-09-30T11:46:04;6.63;;;1.77;;
72895;SDS011;61036;53.224;6.554;2023-09-30T11:48:30;5.07;;;1.43;;
72895;SDS011;61036;53.224;6.554;2023-09-30T11:50:56;6.03;;;1.33;;
72895;SDS011;61036;53.224;6.554;2023-09-30T11:53:25;6.63;;;1.50;;
72895;SDS011;61036;53.224;6.554;2023-09-30T11:55:51;9.13;;;2.00;;
72895;SDS011;61036;53.224;6.554;2023-09-30T11:58:20;7.17;;;1.80;;
72895;SDS011;61036;53.224;6.554;2023-09-30T12:00:45;7.90;;;1.80;;
72895;SDS011;61036;53.224;6.554;2023-09-30T12:03:11;5.90;;;2.07;;
72895;SDS011;61036;53.224;6.554;2023-09-30T12:05:36;8.37;;;2.77;;
72895;SDS011;61036;53.224;6.554;2023-09-30T12:08:02;6.07;;;2.37;;
72895;SDS011;61036;53.224;6.554;2023-09-30T12:10:28;5.37;;;2.30;;
72895;SDS011;61036;53.224;6.554;2023-09-30T12:12:53;9.20;;;1.97;;
72895;SDS011;61036;53.224;6.554;2023-09-30T12:15:19;7.83;;;2.80;;
72895;SDS011;61036;53.224;6.554;2023-09-30T12:17:45;6.87;;;1.87;;
72895;SDS011;61036;53.224;6.554;2023-09-30T12:20:11;7.93;;;2.57;;
72895;SDS011;61036;53.224;6.554;2023-09-30T12:22:39;7.40;;;2.40;;
72895;SDS011;61036;53.224;6.554;2023-09-30T12:25:05;9.93;;;4.80;;
72895;SDS011;61036;53.224;6.554;2023-09-30T12:27:33;6.07;;;2.20;;
72895;SDS011;61036;53.224;6.554;2023-09-30T12:29:59;6.77;;;2.03;;
72895;SDS011;61036;53.224;6.554;2023-09-30T12:32:29;8.37;;;1.90;;
72895;SDS011;61036;53.224;6.554;2023-09-30T12:34:55;5.47;;;1.73;;
72895;SDS011;61036;53.224;6.554;2023-09-30T12:37:20;8.60;;;1.60;;
72895;SDS011;61036;53.224;6.554;2023-09-30T12:39:46;5.30;;;1.57;;
72895;SDS011;61036;53.224;6.554;2023-09-30T12:42:12;8.87;;;1.70;;
72895;SDS011;61036;53.224;6.554;2023-09-30T12:44:39;9.33;;;1.97;;
72895;SDS011;61036;53.224;6.554;2023-09-30T12:47:05;7.10;;;1.80;;
72895;SDS011;61036;53.224;6.554;2023-09-30T12:49:30;6.67;;;1.80;;
72895;SDS011;61036;53.224;6.554;2023-09-30T12:51:56;7.80;;;2.07;;
72895;SDS011;61036;53.224;6.554;2023-09-30T12:54:24;7.10;;;2.00;;
72895;SDS011;61036;53.224;6.554;2023-09-30T12:56:50;9.33;;;2.43;;
72895;SDS011;61036;53.224;6.554;2023-09-30T12:59:16;7.13;;;1.67;;
72895;SDS011;61036;53.224;6.554;2023-09-30T13:01:43;5.40;;;1.30;;
72895;SDS011;61036;53.224;6.554;2023-09-30T13:04:09;5.40;;;1.90;;
72895;SDS011;61036;53.224;6.554;2023-09-30T13:06:34;5.70;;;1.80;;
72895;SDS011;61036;53.224;6.554;2023-09-30T13:09:01;7.30;;;1.97;;
72895;SDS011;61036;53.224;6.554;2023-09-30T13:11:29;6.83;;;1.57;;
72895;SDS011;61036;53.224;6.554;2023-09-30T13:13:55;5.90;;;1.33;;
72895;SDS011;61036;53.224;6.554;2023-09-30T13:16:21;5.37;;;1.50;;
72895;SDS011;61036;53.224;6.554;2023-09-30T13:18:47;7.53;;;1.97;;
72895;SDS011;61036;53.224;6.554;2023-09-30T13:21:13;5.70;;;1.50;;
72895;SDS011;61036;53.224;6.554;2023-09-30T13:23:38;6.17;;;1.60;;
72895;SDS011;61036;53.224;6.554;2023-09-30T13:26:04;6.73;;;1.47;;
72895;SDS011;61036;53.224;6.554;2023-09-30T13:28:30;9.90;;;2.20;;
72895;SDS011;61036;53.224;6.554;2023-09-30T13:30:55;4.77;;;1.47;;
72895;SDS011;61036;53.224;6.554;2023-09-30T13:33:21;4.77;;;1.60;;
72895;SDS011;61036;53.224;6.554;2023-09-30T13:35:47;6.67;;;2.00;;
72895;SDS011;61036;53.224;6.554;2023-09-30T13:38:13;8.67;;;2.23;;
72895;SDS011;61036;53.224;6.554;2023-09-30T13:40:39;8.13;;;1.90;;
72895;SDS011;61036;53.224;6.554;2023-09-30T13:43:05;6.60;;;1.80;;
72895;SDS011;61036;53.224;6.554;2023-09-30T13:45:30;10.00;;;2.27;;
72895;SDS011;61036;53.224;6.554;2023-09-30T13:47:56;5.20;;;1.60;;
72895;SDS011;61036;53.224;6.554;2023-09-30T13:50:21;6.27;;;1.57;;
72895;SDS011;61036;53.224;6.554;2023-09-30T13:52:47;5.97;;;1.40;;
72895;SDS011;61036;53.224;6.554;2023-09-30T13:55:12;6.67;;;1.80;;
72895;SDS011;61036;53.224;6.554;2023-09-30T13:57:44;8.20;;;1.93;;
72895;SDS011;61036;53.224;6.554;2023-09-30T14:00:11;5.97;;;1.70;;
72895;SDS011;61036;53.224;6.554;2023-09-30T14:02:37;6.30;;;1.73;;
72895;SDS011;61036;53.224;6.554;2023-09-30T14:05:03;7.40;;;1.93;;
72895;SDS011;61036;53.224;6.554;2023-09-30T14:07:29;6.53;;;1.63;;
72895;SDS011;61036;53.224;6.554;2023-09-30T14:09:55;4.83;;;1.73;;
72895;SDS011;61036;53.224;6.554;2023-09-30T14:12:20;5.13;;;1.40;;
72895;SDS011;61036;53.224;6.554;2023-09-30T14:14:46;4.47;;;1.67;;
72895;SDS011;61036;53.224;6.554;2023-09-30T14:17:12;8.00;;;1.80;;
72895;SDS011;61036;53.224;6.554;2023-09-30T14:19:40;8.50;;;1.87;;
72895;SDS011;61036;53.224;6.554;2023-09-30T14:22:06;7.07;;;1.70;;
72895;SDS011;61036;53.224;6.554;2023-09-30T14:24:33;10.27;;;1.87;;
72895;SDS011;61036;53.224;6.554;2023-09-30T14:27:00;7.77;;;1.77;;
72895;SDS011;61036;53.224;6.554;2023-09-30T14:29:26;7.43;;;1.70;;
72895;SDS011;61036;53.224;6.554;2023-09-30T14:31:51;6.73;;;1.60;;
72895;SDS011;61036;53.224;6.554;2023-09-30T14:34:17;8.13;;;2.13;;
72895;SDS011;61036;53.224;6.554;2023-09-30T14:36:43;6.13;;;1.67;;
72895;SDS011;61036;53.224;6.554;2023-09-30T14:39:08;4.93;;;1.60;;
72895;SDS011;61036;53.224;6.554;2023-09-30T14:41:34;7.63;;;1.60;;
72895;SDS011;61036;53.224;6.554;2023-09-30T14:44:00;6.57;;;1.50;;
72895;SDS011;61036;53.224;6.554;2023-09-30T14:46:26;6.47;;;1.60;;
72895;SDS011;61036;53.224;6.554;2023-09-30T14:48:53;8.67;;;1.80;;
72895;SDS011;61036;53.224;6.554;2023-09-30T14:51:18;5.90;;;1.70;;
72895;SDS011;61036;53.224;6.554;2023-09-30T14:53:47;5.37;;;1.93;;
72895;SDS011;61036;53.224;6.554;2023-09-30T14:56:16;7.00;;;1.87;;
72895;SDS011;61036;53.224;6.554;2023-09-30T14:58:42;4.70;;;1.60;;
72895;SDS011;61036;53.224;6.554;2023-09-30T15:01:09;7.73;;;1.70;;
72895;SDS011;61036;53.224;6.554;2023-09-30T15:03:34;6.20;;;1.70;;
72895;SDS011;61036;53.224;6.554;2023-09-30T15:06:02;5.23;;;1.60;;